Time;durP1;ratioP1;P1;durP2;ratioP2;P2;SDS_P1;SDS_P2;PMS_P1;PMS_P2;Temp;Humidity;BMP_temperature;BMP_pressure;BME280_temperature;BME280_humidity;BME280_pressure;Samples;Min_cycle;Max_cycle;Signal;HPM_P1;HPM_P2
2021/10/25 00:00:27;;;;;;;4.28;2.47;;;3.80;99.90;;;;;;5027796;28;20205;-76
2021/10/25 00:02:56;;;;;;;2.95;2.33;;;3.80;99.90;;;;;;5029059;28;20267;-76
2021/10/25 00:05:24;;;;;;;3.13;2.40;;;3.80;99.90;;;;;;5029076;28;20189;-76
2021/10/25 00:07:50;;;;;;;3.35;2.65;;;3.80;99.90;;;;;;5029120;28;20155;-76
2021/10/25 00:10:16;;;;;;;3.10;2.80;;;3.80;99.90;;;;;;5029064;28;20249;-76
2021/10/25 00:12:42;;;;;;;3.65;2.65;;;3.80;99.90;;;;;;5027918;28;20253;-77
2021/10/25 00:15:09;;;;;;;4.25;2.58;;;3.80;99.90;;;;;;5029088;28;20154;-76
2021/10/25 00:17:36;;;;;;;5.32;2.78;;;3.80;99.90;;;;;;5029034;28;20158;-76
2021/10/25 00:20:04;;;;;;;5.53;2.88;;;3.80;99.90;;;;;;5027610;28;20202;-76
2021/10/25 00:22:30;;;;;;;5.72;2.45;;;3.70;99.90;;;;;;5028981;28;20166;-76
2021/10/25 00:24:56;;;;;;;5.13;2.25;;;3.70;99.90;;;;;;5028904;28;20190;-76
2021/10/25 00:27:23;;;;;;;4.07;2.60;;;3.70;99.90;;;;;;5027849;28;20163;-76
2021/10/25 00:29:49;;;;;;;3.97;2.17;;;3.60;99.90;;;;;;5028790;28;20203;-76
2021/10/25 00:32:15;;;;;;;4.05;2.63;;;3.70;99.90;;;;;;5027671;28;20189;-77
2021/10/25 00:34:41;;;;;;;5.40;2.72;;;3.70;99.90;;;;;;5028853;28;20159;-76
2021/10/25 00:37:07;;;;;;;5.72;2.67;;;3.60;99.90;;;;;;5028771;28;20216;-76
2021/10/25 00:39:34;;;;;;;6.45;3.67;;;3.70;99.90;;;;;;5027389;28;20197;-77
2021/10/25 00:42:01;;;;;;;4.03;2.95;;;3.60;99.90;;;;;;5028833;28;20167;-76
2021/10/25 00:44:32;;;;;;;5.63;3.08;;;3.60;99.90;;;;;;5028693;28;20159;-76
2021/10/25 00:46:58;;;;;;;3.38;2.13;;;3.60;99.90;;;;;;5028910;28;20146;-76
2021/10/25 00:49:24;;;;;;;5.03;3.00;;;3.50;99.90;;;;;;5016495;28;20213;-76
2021/10/25 00:51:51;;;;;;;4.80;3.25;;;3.50;99.90;;;;;;5024174;28;20202;-76
2021/10/25 00:54:18;;;;;;;5.90;2.90;;;3.40;99.90;;;;;;5011271;28;20170;-76
2021/10/25 00:56:48;;;;;;;5.28;3.10;;;3.40;99.90;;;;;;5026266;28;20165;-76
2021/10/25 00:59:15;;;;;;;4.60;3.03;;;3.40;99.90;;;;;;5030827;28;20273;-76
2021/10/25 01:01:42;;;;;;;3.05;2.75;;;3.40;99.90;;;;;;5030751;28;20224;-76
2021/10/25 01:04:10;;;;;;;5.28;3.13;;;3.40;99.90;;;;;;5032191;28;20174;-77
2021/10/25 01:06:38;;;;;;;5.30;2.80;;;3.40;99.90;;;;;;5031989;28;20204;-76
2021/10/25 01:09:06;;;;;;;7.07;3.65;;;3.40;99.90;;;;;;5030513;28;20200;-78
2021/10/25 01:11:34;;;;;;;5.25;2.40;;;3.30;99.90;;;;;;5032040;28;20158;-76
2021/10/25 01:14:02;;;;;;;4.03;2.53;;;3.30;99.90;;;;;;5030575;28;20173;-76
2021/10/25 01:16:28;;;;;;;4.85;3.20;;;3.20;99.90;;;;;;5031848;28;20166;-76
2021/10/25 01:18:55;;;;;;;5.03;3.05;;;3.10;99.90;;;;;;5031734;28;20201;-76
2021/10/25 01:21:21;;;;;;;5.60;2.40;;;3.10;99.90;;;;;;5031912;28;20180;-76
2021/10/25 01:23:49;;;;;;;3.22;2.30;;;3.10;99.90;;;;;;5031835;28;20190;-76
2021/10/25 01:26:16;;;;;;;7.90;3.00;;;3.10;99.90;;;;;;5030359;28;20217;-76
2021/10/25 01:28:42;;;;;;;4.05;2.83;;;3.10;99.90;;;;;;5031605;28;20150;-76
2021/10/25 01:31:08;;;;;;;3.88;2.28;;;3.10;99.90;;;;;;5031776;28;20181;-76
2021/10/25 01:33:35;;;;;;;4.43;3.17;;;3.10;99.90;;;;;;5031694;28;20150;-76
2021/10/25 01:36:03;;;;;;;3.78;2.75;;;3.00;99.90;;;;;;5031457;28;20241;-76
2021/10/25 01:38:29;;;;;;;4.05;2.70;;;3.00;99.90;;;;;;5031037;28;20213;-76
2021/10/25 01:40:55;;;;;;;5.80;2.95;;;3.00;99.90;;;;;;5030107;28;20185;-76
2021/10/25 01:43:21;;;;;;;4.57;2.85;;;3.00;99.90;;;;;;5031401;28;20166;-76
2021/10/25 01:45:48;;;;;;;7.90;2.80;;;3.00;99.90;;;;;;5031300;28;20185;-76
2021/10/25 01:48:14;;;;;;;4.72;3.00;;;3.10;99.90;;;;;;5031229;28;20166;-76
2021/10/25 01:50:40;;;;;;;4.53;3.03;;;3.10;99.90;;;;;;5030076;28;20214;-76
2021/10/25 01:53:08;;;;;;;6.45;3.80;;;3.10;99.90;;;;;;5031229;28;20221;-76
2021/10/25 01:55:34;;;;;;;5.25;2.95;;;3.10;99.90;;;;;;5030945;28;20194;-76
2021/10/25 01:58:00;;;;;;;6.18;3.00;;;3.10;99.90;;;;;;5029895;28;20181;-76
2021/10/25 02:00:26;;;;;;;3.60;2.28;;;3.10;99.90;;;;;;5027125;28;20229;-76
2021/10/25 02:02:52;;;;;;;6.32;2.78;;;3.10;99.90;;;;;;5050810;28;20201;-77
2021/10/25 02:05:18;;;;;;;2.97;2.38;;;3.10;99.90;;;;;;5032938;28;20224;-77
2021/10/25 02:07:44;;;;;;;5.20;2.42;;;3.10;99.90;;;;;;5032989;28;20176;-76
2021/10/25 02:10:12;;;;;;;4.65;2.55;;;3.10;99.90;;;;;;5050695;28;20672;-77
2021/10/25 02:12:38;;;;;;;7.85;2.58;;;3.10;99.90;;;;;;5032898;28;20169;-78
2021/10/25 02:15:04;;;;;;;5.15;2.35;;;3.00;99.90;;;;;;5050540;28;20159;-77
2021/10/25 02:17:30;;;;;;;6.88;2.70;;;2.90;99.90;;;;;;5050583;28;20196;-77
2021/10/25 02:19:56;;;;;;;4.90;2.80;;;2.80;99.90;;;;;;5032614;28;20571;-77
2021/10/25 02:22:23;;;;;;;5.07;2.95;;;2.70;99.90;;;;;;5032642;28;20173;-76
2021/10/25 02:24:50;;;;;;;5.95;3.13;;;2.60;99.90;;;;;;5050335;28;20204;-77
2021/10/25 02:27:17;;;;;;;4.05;3.58;;;2.50;99.90;;;;;;5050350;28;20187;-77
2021/10/25 02:29:43;;;;;;;6.18;3.08;;;2.30;99.90;;;;;;5050235;28;20260;-77
2021/10/25 02:32:10;;;;;;;5.65;3.78;;;2.30;99.90;;;;;;5032270;28;20170;-77
2021/10/25 02:34:36;;;;;;;5.60;3.72;;;2.30;99.90;;;;;;5032287;28;20276;-76
2021/10/25 02:37:03;;;;;;;5.97;3.42;;;2.20;99.90;;;;;;5050082;28;20162;-77
2021/10/25 02:39:30;;;;;;;5.32;3.10;;;2.20;99.90;;;;;;5050061;28;20212;-77
2021/10/25 02:41:57;;;;;;;6.72;4.00;;;2.30;99.90;;;;;;5032247;28;20161;-76
2021/10/25 02:44:25;;;;;;;6.78;3.67;;;2.40;99.90;;;;;;5031862;28;20166;-76
2021/10/25 02:46:53;;;;;;;5.95;3.45;;;2.40;99.90;;;;;;5049926;28;20166;-77
2021/10/25 02:49:19;;;;;;;6.22;3.97;;;2.50;99.90;;;;;;5028753;28;20209;-77
2021/10/25 02:51:45;;;;;;;9.70;3.85;;;2.50;99.90;;;;;;5029990;28;20166;-77
2021/10/25 02:54:12;;;;;;;5.50;3.38;;;2.60;99.90;;;;;;5028724;28;20177;-77
2021/10/25 02:56:37;;;;;;;4.88;3.45;;;2.60;99.90;;;;;;5043131;28;20184;-78
2021/10/25 02:59:08;;;;;;;7.03;3.45;;;2.60;99.90;;;;;;5032013;28;20325;-78
2021/10/25 03:01:36;;;;;;;7.55;4.03;;;2.60;99.90;;;;;;5049427;28;20227;-77
2021/10/25 03:04:03;;;;;;;5.18;3.17;;;2.50;99.90;;;;;;5031802;28;20239;-77
2021/10/25 03:06:29;;;;;;;8.52;4.18;;;2.50;99.90;;;;;;5049608;28;20185;-77
2021/10/25 03:08:55;;;;;;;6.40;3.63;;;2.50;99.90;;;;;;5031525;28;20277;-77
2021/10/25 03:11:21;;;;;;;4.22;2.92;;;2.40;99.90;;;;;;5048762;28;20154;-77
2021/10/25 03:13:47;;;;;;;15.38;3.83;;;2.40;99.90;;;;;;5049410;28;20177;-77
2021/10/25 03:16:13;;;;;;;5.57;3.47;;;2.30;99.90;;;;;;5031206;28;20169;-77
2021/10/25 03:18:39;;;;;;;4.80;3.10;;;2.20;99.90;;;;;;5031507;28;20173;-77
2021/10/25 03:21:04;;;;;;;8.63;3.47;;;2.20;99.90;;;;;;5049423;28;20211;-77
2021/10/25 03:23:34;;;;;;;7.80;3.92;;;2.20;99.90;;;;;;5031650;28;20181;-77
2021/10/25 03:26:01;;;;;;;9.02;4.85;;;2.20;99.90;;;;;;5031456;28;20208;-77
2021/10/25 03:28:27;;;;;;;4.82;3.55;;;2.20;99.90;;;;;;5049215;28;20527;-78
2021/10/25 03:30:53;;;;;;;6.85;3.78;;;2.30;99.90;;;;;;5031513;28;20289;-77
2021/10/25 03:33:20;;;;;;;6.00;3.88;;;2.20;99.90;;;;;;5049325;28;20157;-78
2021/10/25 03:35:46;;;;;;;4.07;2.92;;;2.20;99.90;;;;;;5031449;28;20180;-79
2021/10/25 03:38:14;;;;;;;6.65;3.50;;;2.20;99.90;;;;;;5049027;28;20217;-78
2021/10/25 03:40:43;;;;;;;7.07;4.22;;;2.20;99.90;;;;;;5031205;28;20197;-77
2021/10/25 03:43:10;;;;;;;4.40;3.40;;;2.20;99.90;;;;;;5048975;28;20153;-77
2021/10/25 03:45:41;;;;;;;4.93;3.00;;;2.20;99.90;;;;;;5048909;28;20200;-78
2021/10/25 03:50:41;;;;;;;4.80;2.45;;;2.10;99.90;;;;;;5048948;28;20229;-77
2021/10/25 03:53:36;;;;;;;4.70;3.33;;;2.10;99.90;;;;;;5049001;28;20161;-77
2021/10/25 03:56:01;;;;;;;8.48;3.38;;;2.00;99.90;;;;;;5048333;28;20181;-77
2021/10/25 04:04:03;;;;;;;7.82;3.05;;;2.00;99.90;;;;;;5017602;28;20185;-77
2021/10/25 04:25:48;;;;;;;6.82;2.50;;;1.80;99.90;;;;;;5048609;28;20189;-77
2021/10/25 04:28:25;;;;;;;9.88;3.38;;;1.80;99.90;;;;;;5049024;28;20184;-77
2021/10/25 04:30:56;;;;;;;9.60;3.33;;;1.90;99.90;;;;;;5052329;28;20192;-77
2021/10/25 04:33:23;;;;;;;9.95;2.88;;;1.90;99.90;;;;;;5052364;28;20161;-77
2021/10/25 04:35:49;;;;;;;6.10;2.47;;;1.90;99.90;;;;;;5052429;28;20534;-77
2021/10/25 04:38:15;;;;;;;3.90;3.10;;;1.90;99.90;;;;;;5034500;28;20173;-78
2021/10/25 04:40:41;;;;;;;7.25;2.95;;;1.90;99.90;;;;;;5033952;28;20200;-77
2021/10/25 04:43:11;;;;;;;5.68;3.38;;;1.90;99.90;;;;;;5034262;28;20192;-77
2021/10/25 04:45:37;;;;;;;6.88;3.13;;;1.90;99.90;;;;;;5051876;28;20218;-77
2021/10/25 04:48:03;;;;;;;3.33;2.45;;;1.80;99.90;;;;;;5052061;28;20185;-77
2021/10/25 04:50:29;;;;;;;7.60;3.08;;;1.80;99.90;;;;;;5034092;28;20209;-77
2021/10/25 04:52:55;;;;;;;6.18;2.97;;;1.80;99.90;;;;;;5034214;28;20177;-77
2021/10/25 04:55:22;;;;;;;6.97;3.38;;;1.80;99.90;;;;;;5051904;28;20167;-77
2021/10/25 04:57:47;;;;;;;8.25;3.22;;;1.80;99.90;;;;;;5034066;28;20591;-77
2021/10/25 05:00:13;;;;;;;7.65;3.47;;;1.80;99.90;;;;;;5034029;28;20287;-77
2021/10/25 05:02:39;;;;;;;5.13;3.15;;;1.80;99.90;;;;;;5051739;28;20249;-78
2021/10/25 05:05:07;;;;;;;8.45;3.63;;;1.80;99.90;;;;;;5033654;28;20284;-77
2021/10/25 05:07:35;;;;;;;7.68;3.08;;;1.90;99.90;;;;;;5033932;28;20673;-77
2021/10/25 05:10:02;;;;;;;8.02;3.53;;;1.90;99.90;;;;;;5033535;28;20201;-77
2021/10/25 05:12:30;;;;;;;3.85;3.05;;;1.90;99.90;;;;;;5051647;28;20232;-78
2021/10/25 05:14:56;;;;;;;4.63;3.10;;;2.00;99.90;;;;;;5033798;28;20173;-77
2021/10/25 05:17:23;;;;;;;4.25;3.50;;;2.00;99.90;;;;;;5033606;28;20169;-77
2021/10/25 05:19:49;;;;;;;5.50;2.75;;;2.00;99.90;;;;;;5033578;28;20235;-77
2021/10/25 05:22:15;;;;;;;4.72;3.28;;;1.90;99.90;;;;;;5033431;28;20173;-78
2021/10/25 05:24:42;;;;;;;3.75;2.67;;;2.00;99.90;;;;;;5051469;28;20192;-77
2021/10/25 05:27:10;;;;;;;3.97;3.08;;;1.90;99.90;;;;;;5033557;28;20192;-77
2021/10/25 05:29:37;;;;;;;6.95;4.65;;;1.90;99.90;;;;;;5033460;28;20197;-79
2021/10/25 05:32:03;;;;;;;12.55;5.38;;;1.90;99.90;;;;;;5051296;28;20176;-79
2021/10/25 05:34:32;;;;;;;6.65;4.47;;;1.90;99.90;;;;;;5033392;28;20165;-79
2021/10/25 05:36:58;;;;;;;14.60;5.45;;;1.70;99.90;;;;;;5033255;28;20176;-77
2021/10/25 05:39:24;;;;;;;11.85;5.38;;;1.60;99.90;;;;;;5050434;28;20193;-79
2021/10/25 05:41:51;;;;;;;6.28;4.43;;;1.70;99.90;;;;;;5033442;28;20165;-78
2021/10/25 05:44:18;;;;;;;10.27;5.47;;;1.70;99.90;;;;;;5050931;28;20184;-79
2021/10/25 05:46:45;;;;;;;10.70;5.80;;;1.70;99.90;;;;;;5033020;28;20197;-79
2021/10/25 05:49:11;;;;;;;13.07;5.75;;;1.80;99.90;;;;;;5050718;28;20204;-79
2021/10/25 05:51:37;;;;;;;11.02;5.70;;;1.80;99.90;;;;;;5033017;28;20175;-79
2021/10/25 05:54:05;;;;;;;12.82;7.18;;;1.80;99.90;;;;;;5050804;28;20625;-78
2021/10/25 05:56:32;;;;;;;13.55;6.85;;;1.80;99.90;;;;;;5050747;28;20173;-78
2021/10/25 05:58:58;;;;;;;17.90;7.30;;;1.80;99.90;;;;;;5033116;28;20201;-79
2021/10/25 06:01:29;;;;;;;9.00;6.15;;;1.70;99.90;;;;;;5050591;28;20227;-79
2021/10/25 06:04:03;;;;;;;12.52;8.25;;;1.60;99.90;;;;;;5050648;28;20165;-79
2021/10/25 06:06:29;;;;;;;15.57;7.45;;;1.40;99.90;;;;;;5032453;28;20200;-79
2021/10/25 06:08:55;;;;;;;10.55;6.55;;;1.40;99.90;;;;;;5050537;28;20680;-79
2021/10/25 06:11:21;;;;;;;12.50;6.75;;;1.50;99.90;;;;;;5032737;28;20174;-78
2021/10/25 06:13:47;;;;;;;10.32;6.50;;;1.50;99.90;;;;;;5050631;28;20185;-77
2021/10/25 06:16:22;;;;;;;11.43;7.13;;;1.60;99.90;;;;;;5032484;28;20584;-79
2021/10/25 06:18:48;;;;;;;25.70;7.90;;;1.60;99.90;;;;;;5050407;28;20152;-78
2021/10/25 06:21:14;;;;;;;11.77;7.28;;;1.50;99.90;;;;;;5050396;28;20221;-78
2021/10/25 06:23:40;;;;;;;14.82;8.70;;;1.50;99.90;;;;;;5032599;28;20170;-78
2021/10/25 06:26:06;;;;;;;22.15;9.68;;;1.40;99.90;;;;;;5050340;28;20189;-79
2021/10/25 06:28:32;;;;;;;18.30;9.02;;;1.40;99.90;;;;;;5032190;28;20200;-78
2021/10/25 06:31:07;;;;;;;18.80;9.68;;;1.40;99.90;;;;;;5032335;28;20197;-78
2021/10/25 06:33:43;;;;;;;21.17;9.65;;;1.50;99.90;;;;;;5050219;28;20168;-78
2021/10/25 06:36:11;;;;;;;22.98;9.10;;;1.50;99.90;;;;;;5032247;28;20193;-78
2021/10/25 06:38:58;;;;;;;13.63;8.30;;;1.60;99.90;;;;;;5049578;28;20165;-78
2021/10/25 06:41:25;;;;;;;14.95;8.55;;;1.60;99.90;;;;;;5032176;28;20216;-78
2021/10/25 06:43:51;;;;;;;20.50;8.63;;;1.80;99.90;;;;;;5032196;28;20197;-78
2021/10/25 06:46:18;;;;;;;21.90;9.20;;;1.80;99.90;;;;;;5049698;28;20193;-78
2021/10/25 06:48:45;;;;;;;18.85;10.40;;;1.90;99.90;;;;;;5030763;28;20248;-78
2021/10/25 06:51:11;;;;;;;15.35;8.10;;;1.90;99.90;;;;;;5031076;28;20162;-78
2021/10/25 06:53:38;;;;;;;14.90;8.32;;;1.90;99.90;;;;;;5049737;28;20193;-78
2021/10/25 06:56:04;;;;;;;19.65;8.73;;;1.90;99.90;;;;;;5049665;28;20189;-79
2021/10/25 06:58:31;;;;;;;16.35;8.52;;;2.00;99.90;;;;;;5031961;28;20172;-78
2021/10/25 07:00:58;;;;;;;14.60;9.52;;;2.10;99.90;;;;;;5028062;28;20225;-78
2021/10/25 07:03:25;;;;;;;13.88;8.75;;;2.10;99.90;;;;;;5028493;28;20173;-78
2021/10/25 07:05:52;;;;;;;22.20;9.23;;;2.20;99.90;;;;;;5029842;28;20190;-79
2021/10/25 07:08:18;;;;;;;21.10;7.13;;;2.40;99.90;;;;;;5028442;28;20169;-79
2021/10/25 07:10:45;;;;;;;13.65;7.90;;;2.80;99.90;;;;;;5029878;28;20249;-78
2021/10/25 07:13:11;;;;;;;15.65;7.80;;;3.20;99.90;;;;;;5029655;28;20166;-78
2021/10/25 07:15:45;;;;;;;11.63;7.53;;;3.30;99.90;;;;;;5028126;28;20177;-78
2021/10/25 08:01:58;;;;;;;10.40;5.22;;;7.00;99.90;;;;;;5037771;28;20232;-79
2021/10/25 08:12:13;;;;;;;12.88;5.47;;;14.00;99.90;;;;;;5052631;28;20172;-78
2021/10/25 08:14:52;;;;;;;7.32;4.70;;;15.50;99.90;;;;;;5034184;28;20195;-79
2021/10/25 08:17:21;;;;;;;10.40;5.03;;;15.70;99.90;;;;;;5052273;28;20200;-79
2021/10/25 08:19:48;;;;;;;15.88;5.32;;;16.20;99.90;;;;;;5052723;28;20154;-79
2021/10/25 08:22:17;;;;;;;9.85;6.22;;;16.20;99.90;;;;;;5052530;28;20165;-79
2021/10/25 08:24:52;;;;;;;11.35;6.22;;;16.60;99.60;;;;;;5034843;28;20173;-79
2021/10/25 08:27:20;;;;;;;15.65;5.20;;;16.50;99.50;;;;;;5052602;28;20611;-78
2021/10/25 08:29:48;;;;;;;9.88;5.47;;;16.60;99.60;;;;;;5052385;28;20169;-79
2021/10/25 08:40:02;;;;;;;11.77;4.63;;;15.20;99.90;;;;;;5052385;28;20160;-78
2021/10/25 08:42:34;;;;;;;8.73;4.97;;;14.50;99.90;;;;;;5052209;28;20180;-78
2021/10/25 08:45:12;;;;;;;15.60;5.55;;;15.20;99.90;;;;;;5052141;28;20216;-77
2021/10/25 08:47:41;;;;;;;7.32;5.10;;;16.80;98.90;;;;;;5034076;28;20657;-79
2021/10/25 08:50:12;;;;;;;7.10;4.63;;;17.30;99.40;;;;;;5051669;28;20184;-78
2021/10/25 08:52:39;;;;;;;9.88;5.03;;;17.40;98.20;;;;;;5052211;28;20160;-79
2021/10/25 08:55:09;;;;;;;8.63;4.38;;;16.60;99.40;;;;;;5034203;28;20171;-78
2021/10/25 08:57:36;;;;;;;5.32;4.57;;;16.00;99.10;;;;;;5034019;28;20224;-79
2021/10/25 09:00:09;;;;;;;7.60;4.88;;;16.10;99.90;;;;;;5034053;28;20171;-77
2021/10/25 09:02:36;;;;;;;12.13;5.20;;;17.10;99.80;;;;;;5033936;28;20231;-78
2021/10/25 09:05:11;;;;;;;7.05;4.60;;;17.40;98.70;;;;;;5051798;28;20200;-77
2021/10/25 09:07:55;;;;;;;8.10;5.00;;;16.50;98.80;;;;;;5051533;28;20195;-78
2021/10/25 09:10:48;;;;;;;7.63;4.22;;;15.10;99.90;;;;;;5051701;28;20557;-77
2021/10/25 09:13:23;;;;;;;8.45;5.22;;;14.70;99.90;;;;;;5051838;28;20162;-78
2021/10/25 09:15:58;;;;;;;7.90;4.43;;;15.30;99.90;;;;;;5032949;28;20706;-78
2021/10/25 09:18:29;;;;;;;8.20;4.80;;;16.60;99.90;;;;;;5033832;28;20669;-77
2021/10/25 09:20:58;;;;;;;8.68;4.53;;;17.60;99.80;;;;;;5033647;28;20173;-77
2021/10/25 09:23:30;;;;;;;8.05;4.80;;;17.80;99.20;;;;;;5033728;28;20230;-77
2021/10/25 09:26:02;;;;;;;8.18;3.80;;;17.10;99.90;;;;;;5051549;28;20204;-76
2021/10/25 09:28:33;;;;;;;7.93;4.13;;;16.30;99.50;;;;;;5051448;28;20189;-77
2021/10/25 09:31:06;;;;;;;8.60;4.28;;;17.10;99.90;;;;;;5051477;28;20221;-77
2021/10/25 09:33:36;;;;;;;8.13;3.67;;;18.20;96.40;;;;;;5051368;28;20154;-77
2021/10/25 09:36:08;;;;;;;4.13;3.47;;;16.80;97.70;;;;;;5033532;28;20177;-77
2021/10/25 09:49:29;;;;;;;5.28;2.40;;;15.40;99.90;;;;;;5049635;28;20256;-76
2021/10/25 09:51:57;;;;;;;4.25;2.80;;;16.20;99.00;;;;;;5033185;28;20173;-76
2021/10/25 09:54:25;;;;;;;4.35;2.92;;;16.70;99.90;;;;;;5033276;28;20173;-76
2021/10/25 09:57:03;;;;;;;3.90;2.95;;;16.60;97.80;;;;;;5050708;28;20176;-76
2021/10/25 09:59:47;;;;;;;7.68;2.90;;;16.60;99.90;;;;;;5051100;28;20183;-76
2021/10/25 10:02:14;;;;;;;5.20;2.80;;;16.50;99.90;;;;;;5032523;28;20231;-75
2021/10/25 10:04:42;;;;;;;4.90;2.83;;;18.10;97.00;;;;;;5050695;28;20168;-75
2021/10/25 10:07:12;;;;;;;5.60;2.50;;;17.10;98.40;;;;;;5050729;28;20154;-76
2021/10/25 10:09:44;;;;;;;3.40;2.38;;;17.50;99.90;;;;;;5050714;28;20165;-76
2021/10/25 10:12:17;;;;;;;4.28;2.45;;;17.50;96.80;;;;;;5050597;28;20215;-76
2021/10/25 10:14:43;;;;;;;3.42;2.42;;;18.80;98.70;;;;;;5050599;28;20150;-76
2021/10/25 10:17:11;;;;;;;5.60;2.70;;;19.10;97.10;;;;;;5032361;28;20169;-75
2021/10/25 10:19:37;;;;;;;2.85;1.98;;;17.50;97.00;;;;;;5032928;28;20169;-76
2021/10/25 10:22:06;;;;;;;3.47;2.47;;;16.00;99.30;;;;;;5032501;28;20169;-76
2021/10/25 10:24:34;;;;;;;4.30;2.15;;;15.70;99.90;;;;;;5032426;28;20169;-76
2021/10/25 10:27:05;;;;;;;3.40;2.25;;;14.90;99.70;;;;;;5032407;28;20177;-77
2021/10/25 10:29:40;;;;;;;1.85;1.60;;;15.00;99.90;;;;;;5032385;28;20177;-76
2021/10/25 10:32:12;;;;;;;4.47;1.95;;;14.00;99.90;;;;;;5050282;28;20157;-75
2021/10/25 10:34:43;;;;;;;3.60;2.45;;;13.70;99.90;;;;;;5049992;28;20179;-76
2021/10/25 10:37:24;;;;;;;3.88;1.98;;;13.90;99.90;;;;;;5050223;28;20211;-76
2021/10/25 10:39:57;;;;;;;2.80;2.55;;;14.20;99.90;;;;;;5050299;28;20158;-76
2021/10/25 10:42:29;;;;;;;3.65;2.42;;;13.80;99.90;;;;;;5050210;28;20177;-76
2021/10/25 10:45:00;;;;;;;4.25;2.10;;;14.70;99.90;;;;;;5049753;28;20220;-76
2021/10/25 10:47:39;;;;;;;4.78;2.35;;;15.00;99.90;;;;;;5031776;28;20209;-76
2021/10/25 10:50:20;;;;;;;5.03;2.63;;;15.10;99.90;;;;;;5049969;28;20177;-77
2021/10/25 10:53:09;;;;;;;5.22;2.85;;;14.30;99.90;;;;;;5049912;28;20165;-77
2021/10/25 10:55:50;;;;;;;4.22;2.40;;;15.40;99.90;;;;;;5049638;28;20169;-76
2021/10/25 11:00:48;;;;;;;2.95;2.08;;;14.60;99.90;;;;;;5049247;28;20162;-75
2021/10/25 11:03:25;;;;;;;3.97;2.60;;;14.00;99.90;;;;;;5049165;28;20243;-76
2021/10/25 11:06:03;;;;;;;3.47;2.30;;;13.90;99.90;;;;;;5031681;28;20228;-76
2021/10/25 11:08:35;;;;;;;6.00;2.65;;;13.90;99.90;;;;;;5049440;28;20276;-76
2021/10/25 11:11:07;;;;;;;2.70;2.15;;;14.10;99.90;;;;;;5049583;28;20161;-75
2021/10/25 11:13:40;;;;;;;3.13;2.55;;;14.70;99.90;;;;;;5049242;28;20645;-75
2021/10/25 11:18:47;;;;;;;3.60;2.67;;;14.50;99.90;;;;;;5049315;28;20247;-76
2021/10/25 11:21:17;;;;;;;3.13;2.38;;;14.50;99.90;;;;;;5031434;28;20560;-76
2021/10/25 11:24:05;;;;;;;5.55;2.53;;;14.40;99.90;;;;;;5048862;28;20192;-75
2021/10/25 11:26:38;;;;;;;5.50;2.70;;;15.20;99.90;;;;;;5049310;28;20211;-76
2021/10/25 11:29:08;;;;;;;4.97;2.45;;;14.90;99.90;;;;;;5049103;28;20189;-76
2021/10/25 11:31:51;;;;;;;3.45;2.25;;;15.20;99.90;;;;;;5048976;28;20177;-75
2021/10/25 11:34:23;;;;;;;3.63;2.10;;;15.80;99.80;;;;;;5049082;28;20162;-76
2021/10/25 11:36:53;;;;;;;5.10;2.83;;;16.50;99.90;;;;;;5048900;28;20165;-75
2021/10/25 11:39:27;;;;;;;2.72;2.40;;;15.80;99.30;;;;;;5048856;28;20154;-75
2021/10/25 11:41:53;;;;;;;7.18;3.58;;;15.30;99.90;;;;;;5031482;28;20169;-76
2021/10/25 11:44:19;;;;;;;5.57;2.33;;;16.40;98.70;;;;;;5049170;28;20184;-75
2021/10/25 11:46:44;;;;;;;4.10;2.03;;;17.40;97.20;;;;;;5048941;28;20248;-76
2021/10/25 11:49:10;;;;;;;4.57;2.40;;;17.40;97.70;;;;;;5027402;28;20219;-75
2021/10/25 11:51:51;;;;;;;5.18;2.30;;;17.80;96.70;;;;;;5028986;28;20158;-75
2021/10/25 11:54:17;;;;;;;2.70;2.15;;;17.20;98.50;;;;;;5027658;28;20165;-75
2021/10/25 11:56:53;;;;;;;6.20;2.15;;;17.70;97.60;;;;;;5024865;28;20172;-76
2021/10/25 11:59:23;;;;;;;4.03;2.00;;;16.80;98.00;;;;;;5048896;28;20161;-73
2021/10/25 12:01:50;;;;;;;3.20;2.40;;;17.40;97.70;;;;;;5048798;28;20229;-76
2021/10/25 12:04:18;;;;;;;3.60;2.42;;;17.40;95.90;;;;;;5048711;28;20180;-76
2021/10/25 12:06:55;;;;;;;4.00;2.00;;;16.60;97.60;;;;;;5048649;28;20181;-76
2021/10/25 12:09:22;;;;;;;2.22;1.80;;;16.70;98.70;;;;;;5031108;28;20161;-75
2021/10/25 12:14:24;;;;;;;4.50;2.28;;;15.90;98.30;;;;;;5048842;28;20193;-75
2021/10/25 12:16:51;;;;;;;3.72;2.42;;;14.60;99.60;;;;;;5030900;28;20668;-75
2021/10/25 12:19:17;;;;;;;5.25;2.55;;;13.10;99.90;;;;;;5048595;28;20193;-75
2021/10/25 12:21:45;;;;;;;2.63;2.00;;;12.60;99.90;;;;;;5048717;28;20277;-75
2021/10/25 12:24:12;;;;;;;2.35;1.98;;;12.30;99.90;;;;;;5031449;28;20622;-74
2021/10/25 12:26:42;;;;;;;2.17;1.63;;;11.70;99.90;;;;;;5048317;28;20213;-74
2021/10/25 12:29:19;;;;;;;6.97;1.98;;;11.60;99.90;;;;;;5048545;28;20189;-75
2021/10/25 12:31:46;;;;;;;2.38;1.65;;;11.50;99.90;;;;;;5048473;28;20153;-76
2021/10/25 12:34:13;;;;;;;2.30;1.77;;;11.50;99.90;;;;;;5048705;28;20158;-75
2021/10/25 12:36:43;;;;;;;3.42;1.73;;;11.50;99.90;;;;;;5048550;28;20173;-75
2021/10/25 12:39:13;;;;;;;3.22;1.75;;;11.40;99.90;;;;;;5030620;28;20197;-75
2021/10/25 12:41:52;;;;;;;3.05;1.63;;;11.20;99.90;;;;;;5048582;28;20161;-76
2021/10/25 12:44:47;;;;;;;2.63;1.70;;;11.40;99.90;;;;;;5031160;28;20215;-75
2021/10/25 12:47:19;;;;;;;4.07;1.95;;;11.40;99.90;;;;;;5047391;28;20209;-75
2021/10/25 12:49:51;;;;;;;1.42;1.20;;;11.30;99.90;;;;;;5031815;28;20201;-76
2021/10/25 12:52:18;;;;;;;3.70;1.55;;;11.30;99.90;;;;;;5052104;28;20177;-75
2021/10/25 12:54:45;;;;;;;3.63;1.73;;;11.50;99.90;;;;;;5051921;28;20267;-75
2021/10/25 12:57:25;;;;;;;5.57;1.50;;;11.70;99.90;;;;;;5033828;28;20670;-75
2021/10/25 13:00:06;;;;;;;5.18;2.25;;;11.70;99.90;;;;;;5033676;28;20161;-74
2021/10/25 13:02:46;;;;;;;2.30;1.45;;;11.70;99.90;;;;;;5051729;28;20228;-75
2021/10/25 13:05:19;;;;;;;1.92;1.65;;;11.30;99.90;;;;;;5051835;28;20231;-76
2021/10/25 13:07:49;;;;;;;2.08;1.50;;;11.10;99.90;;;;;;5033922;28;20681;-75
2021/10/25 13:10:17;;;;;;;1.90;1.33;;;11.20;99.90;;;;;;5051488;28;20158;-75
2021/10/25 13:12:43;;;;;;;3.70;1.90;;;11.30;99.90;;;;;;5033900;28;20181;-75
2021/10/25 13:15:09;;;;;;;2.78;2.10;;;11.50;99.90;;;;;;5034056;28;20197;-75
2021/10/25 13:17:35;;;;;;;2.03;1.50;;;11.40;99.90;;;;;;5051662;28;20189;-75
2021/10/25 13:20:01;;;;;;;2.47;1.50;;;11.30;99.90;;;;;;5033589;28;20544;-75
2021/10/25 13:22:29;;;;;;;3.67;1.67;;;11.30;99.90;;;;;;5033842;28;20177;-75
2021/10/25 13:24:56;;;;;;;2.58;1.50;;;11.30;99.90;;;;;;5051439;28;20170;-75
2021/10/25 13:27:22;;;;;;;2.00;1.17;;;11.20;99.90;;;;;;5051376;28;20193;-76
2021/10/25 13:29:48;;;;;;;1.98;1.40;;;11.20;99.90;;;;;;5033533;28;20180;-75
2021/10/25 13:32:15;;;;;;;4.95;2.13;;;11.20;99.90;;;;;;5033444;28;20174;-75
2021/10/25 13:34:42;;;;;;;2.92;1.35;;;11.30;99.90;;;;;;5033574;28;20166;-76
2021/10/25 13:37:08;;;;;;;2.47;1.40;;;11.50;99.90;;;;;;5033464;28;20276;-76
2021/10/25 13:39:34;;;;;;;6.45;1.98;;;11.50;99.90;;;;;;5033500;28;20231;-76
2021/10/25 13:42:00;;;;;;;3.88;1.65;;;11.50;99.90;;;;;;5033295;28;20165;-75
2021/10/25 13:44:26;;;;;;;3.53;1.60;;;11.40;99.90;;;;;;5051272;28;20157;-75
2021/10/25 13:46:52;;;;;;;1.48;1.20;;;11.30;99.90;;;;;;5050972;28;20189;-75
2021/10/25 13:49:20;;;;;;;3.25;1.65;;;11.20;99.90;;;;;;5050890;28;20260;-75
2021/10/25 13:51:46;;;;;;;2.08;1.80;;;11.20;99.90;;;;;;5033271;28;20876;-75
2021/10/25 13:54:12;;;;;;;4.45;1.70;;;11.20;99.90;;;;;;5051081;28;20268;-75
2021/10/25 13:56:38;;;;;;;6.53;1.90;;;11.10;99.90;;;;;;5050964;28;20232;-75
2021/10/25 13:59:05;;;;;;;2.75;1.80;;;11.20;99.90;;;;;;5033048;28;20201;-76
2021/10/25 14:01:31;;;;;;;2.30;1.50;;;11.10;99.90;;;;;;5029227;28;20221;-75
2021/10/25 14:03:59;;;;;;;3.55;1.75;;;11.00;99.90;;;;;;5029690;28;20193;-75
2021/10/25 14:06:28;;;;;;;3.42;1.73;;;11.00;99.90;;;;;;5029500;28;20265;-75
2021/10/25 14:08:55;;;;;;;1.65;1.40;;;11.10;99.90;;;;;;5029682;28;20682;-75
2021/10/25 14:11:25;;;;;;;3.67;1.48;;;11.00;99.90;;;;;;5030797;28;20151;-75
2021/10/25 14:16:40;;;;;;;2.90;1.40;;;10.90;99.90;;;;;;5030912;28;20154;-75
2021/10/25 14:19:06;;;;;;;6.35;1.55;;;10.80;99.90;;;;;;5030487;28;20198;-75
2021/10/25 14:21:34;;;;;;;5.38;2.28;;;10.80;99.90;;;;;;5029483;28;20181;-75
2021/10/25 14:24:02;;;;;;;4.53;1.63;;;10.70;99.90;;;;;;5030703;28;20180;-75
2021/10/25 14:26:28;;;;;;;1.83;1.60;;;10.70;99.90;;;;;;5030740;28;20253;-75
2021/10/25 14:28:55;;;;;;;2.08;1.80;;;10.70;99.90;;;;;;5030565;28;20714;-76
2021/10/25 14:31:21;;;;;;;3.47;1.20;;;10.70;99.90;;;;;;5030247;28;20170;-76
2021/10/25 14:33:47;;;;;;;2.63;1.70;;;10.60;99.90;;;;;;5030475;28;20570;-75
2021/10/25 14:36:13;;;;;;;5.20;1.75;;;10.60;99.90;;;;;;5029060;28;20232;-75
2021/10/25 14:43:54;;;;;;;2.38;1.50;;;10.50;99.90;;;;;;5030205;28;20173;-75
2021/10/25 14:46:51;;;;;;;3.53;1.52;;;10.50;99.90;;;;;;5028714;28;20205;-76
2021/10/25 14:53:20;;;;;;;3.20;1.92;;;10.40;99.90;;;;;;5021931;28;20199;-76
2021/10/25 14:57:24;;;;;;;2.53;1.40;;;10.30;99.90;;;;;;5029136;28;20193;-76